Time;durP1;ratioP1;P1;durP2;ratioP2;P2;SDS_P1;SDS_P2;PMS_P1;PMS_P2;Temp;Humidity;BMP_temperature;BMP_pressure;BME280_temperature;BME280_humidity;BME280_pressure;Samples;Min_cycle;Max_cycle;Signal;HPM_P1;HPM_P2
2021/11/14 00:00:29;;;;;;;30.70;17.43;;;;;;;;;;4942886;29;20203;-76
2021/11/14 00:03:34;;;;;;;22.73;15.93;;;;;;;;;;4936127;29;20176;-75
2021/11/14 00:06:42;;;;;;;21.30;15.90;;;;;;;;;;4950912;29;20200;-76
2021/11/14 00:09:47;;;;;;;25.47;16.93;;;;;;;;;;4950247;29;20191;-76
2021/11/14 00:12:51;;;;;;;22.60;16.40;;;;;;;;;;4934886;29;20215;-76
2021/11/14 00:15:55;;;;;;;22.67;15.90;;;;;;;;;;4946663;29;20207;-76
2021/11/14 00:19:00;;;;;;;25.33;17.00;;;;;;;;;;4951775;29;20193;-76
2021/11/14 00:22:04;;;;;;;26.03;16.50;;;;;;;;;;4941613;29;20226;-75
2021/11/14 00:25:11;;;;;;;22.30;16.33;;;;;;;;;;4953665;29;20180;-76
2021/11/14 00:28:15;;;;;;;24.73;16.87;;;;;;;;;;4944825;29;20207;-76
2021/11/14 00:31:31;;;;;;;21.17;16.30;;;;;;;;;;4923819;29;20223;-76
2021/11/14 00:34:36;;;;;;;22.27;16.57;;;;;;;;;;4925413;29;20228;-76
2021/11/14 00:37:40;;;;;;;22.60;15.87;;;;;;;;;;4955282;29;20191;-76
2021/11/14 00:40:44;;;;;;;22.80;16.03;;;;;;;;;;4957783;29;20231;-75
2021/11/14 00:43:50;;;;;;;23.00;16.27;;;;;;;;;;4943102;29;20179;-75
2021/11/14 00:46:54;;;;;;;25.40;16.57;;;;;;;;;;4940040;29;20203;-76
2021/11/14 00:49:58;;;;;;;22.47;16.53;;;;;;;;;;4939184;29;20187;-76
2021/11/14 00:53:02;;;;;;;23.70;16.47;;;;;;;;;;4927155;29;20596;-76
2021/11/14 00:56:07;;;;;;;23.80;17.03;;;;;;;;;;4929322;29;20199;-76
2021/11/14 00:59:12;;;;;;;23.03;16.83;;;;;;;;;;4930785;29;20192;-75
2021/11/14 01:02:16;;;;;;;22.60;16.10;;;;;;;;;;4957702;29;20278;-75
2021/11/14 01:05:23;;;;;;;24.50;16.50;;;;;;;;;;4929637;29;20191;-75
2021/11/14 01:08:28;;;;;;;25.73;16.87;;;;;;;;;;4942585;29;20192;-75
2021/11/14 01:11:32;;;;;;;24.73;16.50;;;;;;;;;;4945830;29;20582;-75
2021/11/14 01:14:36;;;;;;;23.47;16.20;;;;;;;;;;4957708;29;20211;-75
2021/11/14 01:17:41;;;;;;;22.43;15.47;;;;;;;;;;4955339;29;20751;-75
2021/11/14 01:20:49;;;;;;;22.83;16.50;;;;;;;;;;4942561;29;20302;-75
2021/11/14 01:23:55;;;;;;;21.60;15.27;;;;;;;;;;4957596;29;20180;-75
2021/11/14 01:26:59;;;;;;;21.90;15.97;;;;;;;;;;4943042;29;20205;-75
2021/11/14 01:30:11;;;;;;;21.37;16.07;;;;;;;;;;4938384;29;20192;-75
2021/11/14 01:33:16;;;;;;;21.47;15.93;;;;;;;;;;4938242;29;20227;-75
2021/11/14 01:36:21;;;;;;;23.43;16.20;;;;;;;;;;4936560;29;20212;-76
2021/11/14 01:39:25;;;;;;;19.67;14.50;;;;;;;;;;4956986;29;20216;-75
2021/11/14 01:42:29;;;;;;;18.50;13.83;;;;;;;;;;4957174;29;20722;-75
2021/11/14 01:45:34;;;;;;;19.07;13.97;;;;;;;;;;4943057;29;20670;-75
2021/11/14 01:48:38;;;;;;;18.53;12.97;;;;;;;;;;4943951;29;20551;-75
2021/11/14 01:51:43;;;;;;;19.30;12.73;;;;;;;;;;4933950;29;20694;-75
2021/11/14 01:54:47;;;;;;;16.73;13.13;;;;;;;;;;4943209;29;20240;-76
2021/11/14 01:57:52;;;;;;;18.37;13.43;;;;;;;;;;4955446;29;20264;-75
2021/11/14 02:01:00;;;;;;;21.47;15.40;;;;;;;;;;4928752;29;20220;-75
2021/11/14 02:04:05;;;;;;;21.93;14.57;;;;;;;;;;4947551;29;20196;-75
2021/11/14 02:07:15;;;;;;;18.03;14.30;;;;;;;;;;4938828;29;20195;-75
2021/11/14 02:10:32;;;;;;;19.93;14.03;;;;;;;;;;4938490;29;20203;-75
2021/11/14 02:13:36;;;;;;;22.00;14.97;;;;;;;;;;4938936;29;20236;-75
2021/11/14 02:16:41;;;;;;;20.00;13.53;;;;;;;;;;4950365;29;20199;-75
2021/11/14 02:19:50;;;;;;;18.97;14.07;;;;;;;;;;4955858;29;20202;-75
2021/11/14 02:22:55;;;;;;;17.93;13.77;;;;;;;;;;4954335;29;20208;-75
2021/11/14 02:25:59;;;;;;;19.30;14.27;;;;;;;;;;4956162;29;20191;-75
2021/11/14 02:29:03;;;;;;;17.20;12.73;;;;;;;;;;4933253;29;20199;-76
2021/11/14 02:32:08;;;;;;;19.10;13.20;;;;;;;;;;4944183;29;20288;-76
2021/11/14 02:35:13;;;;;;;19.73;14.53;;;;;;;;;;4937203;29;20671;-76
2021/11/14 02:38:20;;;;;;;20.17;15.17;;;;;;;;;;4942589;29;20199;-76
2021/11/14 02:41:24;;;;;;;19.10;14.73;;;;;;;;;;4935486;29;20232;-75
2021/11/14 02:44:28;;;;;;;19.57;13.60;;;;;;;;;;4940502;29;20204;-75
2021/11/14 02:47:33;;;;;;;21.30;13.60;;;;;;;;;;4937237;29;20199;-75
2021/11/14 02:50:38;;;;;;;19.50;14.27;;;;;;;;;;4937105;29;20226;-76
2021/11/14 02:53:43;;;;;;;19.27;14.40;;;;;;;;;;4955662;29;20622;-75
2021/11/14 02:56:47;;;;;;;18.43;13.43;;;;;;;;;;4930470;29;20203;-76
2021/11/14 02:59:52;;;;;;;19.17;12.97;;;;;;;;;;4937236;29;20199;-75
2021/11/14 03:02:56;;;;;;;19.30;14.13;;;;;;;;;;4946727;29;20202;-76
2021/11/14 03:06:01;;;;;;;19.53;13.97;;;;;;;;;;4936714;29;20188;-75
2021/11/14 03:09:05;;;;;;;15.73;12.50;;;;;;;;;;4937570;29;20203;-76
2021/11/14 03:12:09;;;;;;;18.93;14.00;;;;;;;;;;4949028;29;20246;-75
2021/11/14 03:15:40;;;;;;;17.83;13.23;;;;;;;;;;4956050;29;20219;-75
2021/11/14 03:18:45;;;;;;;17.03;12.60;;;;;;;;;;4953308;29;20288;-76
2021/11/14 03:21:48;;;;;;;16.20;12.43;;;;;;;;;;4936347;29;20587;-75
2021/11/14 03:24:53;;;;;;;15.50;12.07;;;;;;;;;;4934886;29;20207;-75
2021/11/14 03:27:58;;;;;;;16.03;12.00;;;;;;;;;;4936417;29;20189;-76
2021/11/14 03:31:02;;;;;;;17.17;13.00;;;;;;;;;;4950754;29;20250;-76
2021/11/14 03:34:07;;;;;;;19.97;13.33;;;;;;;;;;4951176;29;20215;-75
2021/11/14 03:37:19;;;;;;;18.40;13.13;;;;;;;;;;4943496;29;20200;-75
2021/11/14 03:40:23;;;;;;;17.97;13.17;;;;;;;;;;4945700;29;20199;-75
2021/11/14 03:43:30;;;;;;;19.97;13.33;;;;;;;;;;4939445;29;20199;-76
2021/11/14 03:46:36;;;;;;;17.93;13.30;;;;;;;;;;4943909;29;20194;-76
2021/11/14 03:49:40;;;;;;;19.00;12.90;;;;;;;;;;4927813;29;20208;-76
2021/11/14 03:52:44;;;;;;;20.60;12.50;;;;;;;;;;4935040;29;20575;-76
2021/11/14 03:55:50;;;;;;;16.47;12.73;;;;;;;;;;4938552;29;20199;-76
2021/11/14 03:58:55;;;;;;;16.20;12.90;;;;;;;;;;4953143;29;20183;-76
2021/11/14 04:02:00;;;;;;;16.00;12.53;;;;;;;;;;4945558;29;20226;-76
2021/11/14 04:05:05;;;;;;;16.80;12.33;;;;;;;;;;4954918;29;20207;-76
2021/11/14 04:08:15;;;;;;;18.93;12.03;;;;;;;;;;4954649;29;20204;-75
2021/11/14 04:11:19;;;;;;;17.53;12.63;;;;;;;;;;4956662;29;20222;-75
2021/11/14 04:14:23;;;;;;;17.47;12.83;;;;;;;;;;4945761;29;20220;-76
2021/11/14 04:17:28;;;;;;;15.97;11.57;;;;;;;;;;4942355;29;20216;-76
2021/11/14 04:20:35;;;;;;;17.37;11.90;;;;;;;;;;4949169;29;20202;-76
2021/11/14 04:23:40;;;;;;;19.40;12.20;;;;;;;;;;4958137;29;20187;-76
2021/11/14 04:26:44;;;;;;;16.13;11.87;;;;;;;;;;4946642;29;20195;-76
2021/11/14 04:29:48;;;;;;;16.73;12.63;;;;;;;;;;4920650;29;20198;-76
2021/11/14 04:32:54;;;;;;;15.40;11.30;;;;;;;;;;4949811;29;20804;-76
2021/11/14 04:35:58;;;;;;;14.80;11.23;;;;;;;;;;4957493;29;20226;-76
2021/11/14 04:39:04;;;;;;;15.53;11.70;;;;;;;;;;4946625;29;20180;-75
2021/11/14 04:42:09;;;;;;;16.40;11.97;;;;;;;;;;4951424;29;20223;-76
2021/11/14 04:45:14;;;;;;;18.60;12.47;;;;;;;;;;4941539;29;21387;-76
2021/11/14 04:48:19;;;;;;;15.73;12.37;;;;;;;;;;4939302;29;20691;-75
2021/11/14 04:51:24;;;;;;;18.27;12.13;;;;;;;;;;4927455;29;20236;-75
2021/11/14 04:54:28;;;;;;;15.93;11.27;;;;;;;;;;4982059;23;20241;-82
2021/11/14 04:57:33;;;;;;;14.77;11.57;;;;;;;;;;4943392;28;20202;-82
2021/11/14 05:00:47;;;;;;;17.03;11.63;;;;;;;;;;4948451;28;20564;-82
2021/11/14 05:03:52;;;;;;;13.93;10.50;;;;;;;;;;4961216;28;20231;-83
2021/11/14 05:06:56;;;;;;;17.53;12.13;;;;;;;;;;4930251;29;20205;-82
2021/11/14 05:10:00;;;;;;;21.10;14.40;;;;;;;;;;4925075;29;20191;-82
2021/11/14 05:13:05;;;;;;;21.27;14.50;;;;;;;;;;4935930;29;20562;-82
2021/11/14 05:16:10;;;;;;;21.37;14.70;;;;;;;;;;4930622;29;20578;-83
2021/11/14 05:19:13;;;;;;;17.53;12.70;;;;;;;;;;4936763;29;20186;-83
2021/11/14 05:22:17;;;;;;;19.13;14.03;;;;;;;;;;4935183;29;20195;-82
2021/11/14 05:25:22;;;;;;;20.80;14.07;;;;;;;;;;4925262;29;20215;-83
2021/11/14 05:28:26;;;;;;;25.00;14.57;;;;;;;;;;4924919;29;20192;-83
2021/11/14 05:31:31;;;;;;;25.03;15.33;;;;;;;;;;4935398;29;20194;-82
2021/11/14 05:34:35;;;;;;;27.57;16.83;;;;;;;;;;4946739;29;20254;-82
2021/11/14 05:37:39;;;;;;;28.90;16.67;;;;;;;;;;4935288;29;20187;-82
2021/11/14 05:40:43;;;;;;;28.43;16.90;;;;;;;;;;4924618;29;20199;-82
2021/11/14 05:43:48;;;;;;;28.27;17.47;;;;;;;;;;4924276;29;20226;-82
2021/11/14 05:46:52;;;;;;;28.30;16.93;;;;;;;;;;4924493;29;20195;-82
2021/11/14 05:49:56;;;;;;;26.00;16.77;;;;;;;;;;4946153;29;20203;-82
2021/11/14 05:53:00;;;;;;;24.13;16.13;;;;;;;;;;4935294;29;20188;-82
2021/11/14 05:56:05;;;;;;;21.07;15.33;;;;;;;;;;4934978;29;20222;-82
2021/11/14 06:05:39;;;;;;;28.77;16.27;;;;;;;;;;4934656;29;20832;-82
2021/11/14 06:08:43;;;;;;;25.83;16.07;;;;;;;;;;4923414;29;20216;-82
2021/11/14 06:11:47;;;;;;;33.50;16.70;;;;;;;;;;4924307;29;20207;-82
2021/11/14 06:14:51;;;;;;;28.17;16.53;;;;;;;;;;4923290;29;20222;-82
2021/11/14 06:17:56;;;;;;;32.87;18.00;;;;;;;;;;4923295;29;20191;-82
2021/11/14 06:21:00;;;;;;;41.33;17.40;;;;;;;;;;4933985;29;20207;-82
2021/11/14 06:24:05;;;;;;;29.67;17.40;;;;;;;;;;4923747;28;20228;-82
2021/11/14 06:27:09;;;;;;;38.80;17.37;;;;;;;;;;4922794;29;20207;-82
2021/11/14 06:30:14;;;;;;;24.70;16.70;;;;;;;;;;4921026;29;20208;-82
2021/11/14 06:33:18;;;;;;;27.73;17.83;;;;;;;;;;4903816;29;20547;-82
2021/11/14 06:36:23;;;;;;;27.77;17.90;;;;;;;;;;4915738;29;20690;-82
2021/11/14 06:39:27;;;;;;;25.47;16.87;;;;;;;;;;4923267;29;20212;-82
2021/11/14 06:42:31;;;;;;;26.27;17.70;;;;;;;;;;4919087;29;20227;-82
2021/11/14 06:45:35;;;;;;;25.93;17.40;;;;;;;;;;4933075;29;20235;-82
2021/11/14 06:48:39;;;;;;;30.47;17.90;;;;;;;;;;4923514;29;20203;-83
2021/11/14 06:51:44;;;;;;;28.27;17.77;;;;;;;;;;4923879;29;20191;-82
2021/11/14 06:54:48;;;;;;;32.70;18.97;;;;;;;;;;4945178;29;20235;-83
2021/11/14 06:57:52;;;;;;;32.30;19.27;;;;;;;;;;4917074;29;20200;-82
2021/11/14 07:00:57;;;;;;;28.13;18.53;;;;;;;;;;4944164;29;20186;-82
2021/11/14 07:04:02;;;;;;;26.27;18.17;;;;;;;;;;4933598;29;20226;-82
2021/11/14 07:07:06;;;;;;;29.73;18.93;;;;;;;;;;4933949;29;20187;-82
2021/11/14 07:10:15;;;;;;;31.57;19.07;;;;;;;;;;4933568;29;20193;-82
2021/11/14 07:13:19;;;;;;;30.13;19.30;;;;;;;;;;4933784;29;20195;-82
2021/11/14 07:16:23;;;;;;;30.13;19.47;;;;;;;;;;4933873;29;20216;-82
2021/11/14 07:19:27;;;;;;;29.53;18.20;;;;;;;;;;4923051;29;20183;-82
2021/11/14 07:22:32;;;;;;;30.87;18.57;;;;;;;;;;4934108;29;20190;-82
2021/11/14 07:25:37;;;;;;;30.40;20.17;;;;;;;;;;4921743;29;20187;-82
2021/11/14 07:28:41;;;;;;;33.60;19.93;;;;;;;;;;4923048;29;20184;-82
2021/11/14 07:31:45;;;;;;;32.77;20.70;;;;;;;;;;4920652;29;20200;-82
2021/11/14 07:34:49;;;;;;;32.47;19.97;;;;;;;;;;4944039;29;20227;-82
2021/11/14 07:37:53;;;;;;;28.37;19.47;;;;;;;;;;4933229;29;20674;-82
2021/11/14 07:40:57;;;;;;;31.17;19.83;;;;;;;;;;4933524;29;20191;-82
2021/11/14 07:44:02;;;;;;;28.87;19.60;;;;;;;;;;4932673;29;20586;-82
2021/11/14 07:47:06;;;;;;;31.10;19.97;;;;;;;;;;4933790;29;20194;-82
2021/11/14 07:50:11;;;;;;;29.23;19.97;;;;;;;;;;4943898;29;20205;-82
2021/11/14 07:53:15;;;;;;;30.40;19.80;;;;;;;;;;4921958;28;20187;-82
2021/11/14 07:56:21;;;;;;;28.50;18.80;;;;;;;;;;4922891;29;20215;-82
2021/11/14 07:59:26;;;;;;;31.80;19.40;;;;;;;;;;4942599;29;20655;-82
2021/11/14 08:02:30;;;;;;;39.83;23.53;;;;;;;;;;4921895;29;20195;-82
2021/11/14 08:05:34;;;;;;;32.30;20.60;;;;;;;;;;4922055;29;20224;-82
2021/11/14 08:08:40;;;;;;;28.57;18.80;;;;;;;;;;4932714;29;20195;-82
2021/11/14 08:11:44;;;;;;;29.20;19.47;;;;;;;;;;4921665;29;20683;-82
2021/11/14 08:14:49;;;;;;;27.90;17.90;;;;;;;;;;4922198;29;20222;-82
2021/11/14 08:17:53;;;;;;;23.43;16.87;;;;;;;;;;4921793;29;20200;-83
2021/11/14 08:20:58;;;;;;;24.27;16.80;;;;;;;;;;4922204;29;20188;-82
2021/11/14 08:24:02;;;;;;;25.43;18.00;;;;;;;;;;4920873;29;20223;-82
2021/11/14 08:27:06;;;;;;;30.57;19.83;;;;;;;;;;4921510;29;20179;-82
2021/11/14 08:30:13;;;;;;;26.00;17.83;;;;;;;;;;4932722;29;21317;-82
2021/11/14 08:33:17;;;;;;;26.57;17.53;;;;;;;;;;4932455;29;20202;-82
2021/11/14 08:36:21;;;;;;;27.20;19.23;;;;;;;;;;4921861;29;20222;-82
2021/11/14 08:39:25;;;;;;;24.07;16.83;;;;;;;;;;4921852;29;20677;-82
2021/11/14 08:42:30;;;;;;;25.17;18.43;;;;;;;;;;4919136;29;20194;-82
2021/11/14 08:45:35;;;;;;;26.70;17.90;;;;;;;;;;4921458;29;20211;-82
2021/11/14 08:48:39;;;;;;;26.77;16.87;;;;;;;;;;4933443;29;20673;-82
2021/11/14 08:51:43;;;;;;;25.37;17.53;;;;;;;;;;4940879;29;20675;-82
2021/11/14 08:54:47;;;;;;;24.23;16.73;;;;;;;;;;4932855;28;20238;-82
2021/11/14 08:57:53;;;;;;;25.17;17.50;;;;;;;;;;4936307;29;20179;-82
2021/11/14 09:00:58;;;;;;;25.67;16.90;;;;;;;;;;4925076;29;20191;-82
2021/11/14 09:04:03;;;;;;;25.30;16.87;;;;;;;;;;4924980;29;20222;-82
2021/11/14 09:07:07;;;;;;;25.20;17.90;;;;;;;;;;4924907;29;20214;-83
2021/11/14 09:10:12;;;;;;;22.83;16.30;;;;;;;;;;4935874;29;20564;-82
2021/11/14 09:13:16;;;;;;;23.87;16.27;;;;;;;;;;4906022;29;20217;-82
2021/11/14 09:16:24;;;;;;;22.30;15.93;;;;;;;;;;4939307;29;20223;-82
2021/11/14 09:19:28;;;;;;;25.90;16.20;;;;;;;;;;4935511;29;20264;-82
2021/11/14 09:22:34;;;;;;;24.07;15.27;;;;;;;;;;4935563;29;20206;-82
2021/11/14 09:25:41;;;;;;;20.40;14.83;;;;;;;;;;4935268;29;20210;-83
2021/11/14 09:28:45;;;;;;;20.00;14.50;;;;;;;;;;4935790;29;20195;-82
2021/11/14 09:31:49;;;;;;;25.20;15.73;;;;;;;;;;4921200;29;20196;-83
2021/11/14 09:34:53;;;;;;;22.83;16.57;;;;;;;;;;4916807;29;20227;-82
2021/11/14 09:37:57;;;;;;;19.53;14.23;;;;;;;;;;4932239;29;20192;-82
2021/11/14 09:41:07;;;;;;;20.83;14.07;;;;;;;;;;4934854;29;20190;-84
2021/11/14 09:44:13;;;;;;;18.63;13.07;;;;;;;;;;4905715;29;20239;-82
2021/11/14 09:47:18;;;;;;;19.87;13.43;;;;;;;;;;4927536;29;20180;-82
2021/11/14 09:50:24;;;;;;;18.87;13.13;;;;;;;;;;4940925;29;20202;-83
2021/11/14 09:53:35;;;;;;;18.07;13.00;;;;;;;;;;4945766;28;20195;-82
2021/11/14 09:56:39;;;;;;;16.73;13.03;;;;;;;;;;4923835;29;20226;-82
2021/11/14 09:59:43;;;;;;;17.47;12.93;;;;;;;;;;4945981;29;20203;-83
2021/11/14 10:02:47;;;;;;;18.77;12.90;;;;;;;;;;4921092;29;20200;-83
2021/11/14 10:05:52;;;;;;;18.40;12.43;;;;;;;;;;4921748;29;20187;-83
2021/11/14 10:08:56;;;;;;;16.60;12.70;;;;;;;;;;4924005;29;20206;-83
2021/11/14 10:12:17;;;;;;;18.33;13.07;;;;;;;;;;4934583;29;20697;-83
2021/11/14 10:15:23;;;;;;;18.87;13.03;;;;;;;;;;4916032;29;20231;-82
2021/11/14 10:18:27;;;;;;;16.13;12.27;;;;;;;;;;4931941;29;20195;-83
2021/11/14 10:21:33;;;;;;;17.83;12.53;;;;;;;;;;4934129;29;20207;-82
2021/11/14 10:24:38;;;;;;;16.87;12.60;;;;;;;;;;4924139;29;20219;-83
2021/11/14 10:27:43;;;;;;;17.73;13.27;;;;;;;;;;4945483;29;20180;-83
2021/11/14 10:30:47;;;;;;;15.00;11.83;;;;;;;;;;4934766;29;20196;-82
2021/11/14 10:33:53;;;;;;;15.50;11.87;;;;;;;;;;4934994;29;20226;-83
2021/11/14 10:36:57;;;;;;;15.97;11.47;;;;;;;;;;4957265;29;20218;-82
2021/11/14 10:40:03;;;;;;;19.77;12.80;;;;;;;;;;4934064;29;20200;-83
2021/11/14 10:43:07;;;;;;;31.87;17.10;;;;;;;;;;4923376;29;20657;-82
2021/11/14 10:46:21;;;;;;;19.30;12.17;;;;;;;;;;4904715;29;20200;-83
2021/11/14 10:49:25;;;;;;;16.23;11.33;;;;;;;;;;4928811;29;20207;-83
2021/11/14 10:52:30;;;;;;;14.10;11.03;;;;;;;;;;4934060;29;20180;-83
2021/11/14 10:55:39;;;;;;;14.53;11.00;;;;;;;;;;4977235;23;20238;-85
2021/11/14 10:58:45;;;;;;;16.93;10.93;;;;;;;;;;4935032;29;20211;-85
2021/11/14 11:01:52;;;;;;;14.27;10.73;;;;;;;;;;4935202;28;20198;-84
2021/11/14 11:05:08;;;;;;;16.03;10.57;;;;;;;;;;4922800;29;20227;-85
2021/11/14 11:08:22;;;;;;;13.50;10.43;;;;;;;;;;4936073;29;20176;-85
2021/11/14 11:11:27;;;;;;;12.80;10.63;;;;;;;;;;4947093;29;20685;-85
2021/11/14 11:14:31;;;;;;;14.93;10.67;;;;;;;;;;4934851;29;20234;-84
2021/11/14 11:17:48;;;;;;;15.87;11.17;;;;;;;;;;4924774;29;20215;-85
2021/11/14 11:20:55;;;;;;;14.03;10.90;;;;;;;;;;4944171;29;20829;-85
2021/11/14 11:24:09;;;;;;;13.70;10.50;;;;;;;;;;4921878;29;20211;-85
2021/11/14 11:27:14;;;;;;;13.97;10.40;;;;;;;;;;4933120;29;20199;-84
2021/11/14 11:30:30;;;;;;;14.07;9.83;;;;;;;;;;4922369;29;20680;-84
2021/11/14 11:33:37;;;;;;;12.17;9.60;;;;;;;;;;4915111;29;20208;-85
2021/11/14 11:36:42;;;;;;;14.70;10.13;;;;;;;;;;4922339;29;20809;-85
2021/11/14 11:39:46;;;;;;;13.07;9.27;;;;;;;;;;4934720;29;20706;-84
2021/11/14 11:42:52;;;;;;;10.27;7.97;;;;;;;;;;4906319;29;20675;-85
2021/11/14 11:46:02;;;;;;;12.60;9.10;;;;;;;;;;4916402;29;20227;-85
2021/11/14 11:49:09;;;;;;;12.30;9.13;;;;;;;;;;4934555;28;20195;-85
2021/11/14 11:52:18;;;;;;;11.83;8.83;;;;;;;;;;4933541;29;20192;-86
2021/11/14 11:55:26;;;;;;;10.97;8.63;;;;;;;;;;4923524;29;20236;-86
2021/11/14 11:58:43;;;;;;;11.33;9.03;;;;;;;;;;4941685;29;20180;-86
2021/11/14 12:02:07;;;;;;;11.63;8.90;;;;;;;;;;4923058;29;20640;-85
2021/11/14 12:05:16;;;;;;;12.40;9.30;;;;;;;;;;4901411;29;20215;-85
2021/11/14 12:08:20;;;;;;;12.63;9.97;;;;;;;;;;4925926;29;20203;-85
2021/11/14 12:11:39;;;;;;;13.63;9.63;;;;;;;;;;4920482;29;20532;-85
2021/11/14 12:14:43;;;;;;;13.17;9.57;;;;;;;;;;4944098;29;20223;-84
2021/11/14 12:18:06;;;;;;;14.87;9.63;;;;;;;;;;4914472;29;20207;-85
2021/11/14 12:21:19;;;;;;;11.23;8.57;;;;;;;;;;4911895;29;20184;-86
2021/11/14 12:24:24;;;;;;;11.03;8.17;;;;;;;;;;4929946;29;20219;-86
2021/11/14 12:27:34;;;;;;;10.93;7.90;;;;;;;;;;4913615;29;20192;-84
2021/11/14 12:30:43;;;;;;;11.37;8.20;;;;;;;;;;4926250;28;20191;-84
2021/11/14 12:33:51;;;;;;;13.57;8.40;;;;;;;;;;4928006;29;20184;-85
2021/11/14 12:37:11;;;;;;;11.03;8.47;;;;;;;;;;4916689;29;20212;-84
2021/11/14 12:40:22;;;;;;;11.70;8.33;;;;;;;;;;4905930;29;20692;-85
2021/11/14 12:43:43;;;;;;;11.83;7.87;;;;;;;;;;4914892;29;20184;-85
2021/11/14 12:46:47;;;;;;;11.73;8.17;;;;;;;;;;4926158;29;20181;-84
2021/11/14 12:50:17;;;;;;;10.43;7.20;;;;;;;;;;4933953;29;20195;-85
2021/11/14 12:53:21;;;;;;;13.07;8.33;;;;;;;;;;4925706;29;20199;-85
2021/11/14 12:56:40;;;;;;;11.60;8.70;;;;;;;;;;4917205;29;20184;-85
2021/11/14 12:59:46;;;;;;;11.00;7.30;;;;;;;;;;4937927;29;20204;-85
2021/11/14 13:02:51;;;;;;;15.63;8.87;;;;;;;;;;4927894;29;20192;-85
2021/11/14 13:05:58;;;;;;;9.70;7.53;;;;;;;;;;4929304;29;20231;-85
2021/11/14 13:09:11;;;;;;;11.50;8.30;;;;;;;;;;4924085;29;20192;-84
2021/11/14 13:12:20;;;;;;;10.57;7.87;;;;;;;;;;4956732;29;20187;-85
2021/11/14 13:15:24;;;;;;;10.43;8.07;;;;;;;;;;4917869;29;20216;-85
2021/11/14 13:18:29;;;;;;;12.83;8.93;;;;;;;;;;4917649;29;20548;-85
2021/11/14 13:21:38;;;;;;;12.73;8.27;;;;;;;;;;4937395;29;20208;-85
2021/11/14 13:24:48;;;;;;;12.77;8.47;;;;;;;;;;4926630;29;20219;-84
2021/11/14 13:27:53;;;;;;;12.90;9.10;;;;;;;;;;4958804;29;20195;-85
2021/11/14 13:30:58;;;;;;;10.90;7.83;;;;;;;;;;4937414;29;20180;-85
2021/11/14 13:34:16;;;;;;;9.83;7.90;;;;;;;;;;4925539;29;20199;-84
2021/11/14 13:37:22;;;;;;;10.53;8.10;;;;;;;;;;4937092;29;20207;-85
2021/11/14 13:40:27;;;;;;;14.37;8.43;;;;;;;;;;4937089;29;20191;-84
2021/11/14 13:43:31;;;;;;;11.00;8.07;;;;;;;;;;4947545;29;20207;-84
2021/11/14 13:46:35;;;;;;;11.30;7.93;;;;;;;;;;4926352;29;20198;-85
2021/11/14 13:49:42;;;;;;;12.13;9.13;;;;;;;;;;4926034;29;20539;-84
2021/11/14 13:52:48;;;;;;;10.80;8.33;;;;;;;;;;4926298;29;20183;-85
2021/11/14 13:55:55;;;;;;;9.40;7.57;;;;;;;;;;4925291;29;20227;-84
2021/11/14 13:59:00;;;;;;;8.83;6.53;;;;;;;;;;4947559;29;20176;-85
2021/11/14 14:02:06;;;;;;;9.07;7.47;;;;;;;;;;4947564;29;20184;-84
2021/11/14 14:05:12;;;;;;;9.27;6.90;;;;;;;;;;4925557;29;20215;-85
2021/11/14 14:08:27;;;;;;;9.50;7.07;;;;;;;;;;4925344;29;20655;-84
2021/11/14 14:11:32;;;;;;;9.87;7.90;;;;;;;;;;4936547;29;20191;-85
2021/11/14 14:14:37;;;;;;;12.83;7.47;;;;;;;;;;4947162;29;20223;-85
2021/11/14 14:17:45;;;;;;;11.87;8.00;;;;;;;;;;4925289;29;20203;-85
2021/11/14 14:21:04;;;;;;;9.27;7.63;;;;;;;;;;4925506;29;20635;-85
2021/11/14 14:24:09;;;;;;;9.93;6.97;;;;;;;;;;4936638;29;20215;-84
2021/11/14 14:27:23;;;;;;;11.43;7.73;;;;;;;;;;4936306;29;20199;-85
2021/11/14 14:30:28;;;;;;;9.27;7.33;;;;;;;;;;4937263;29;20200;-85
2021/11/14 14:33:34;;;;;;;9.97;7.27;;;;;;;;;;4925529;29;20631;-85
2021/11/14 14:36:38;;;;;;;8.50;6.90;;;;;;;;;;4946975;29;20179;-85
2021/11/14 14:39:46;;;;;;;9.57;7.73;;;;;;;;;;4936223;29;20187;-84
2021/11/14 14:42:53;;;;;;;11.80;8.93;;;;;;;;;;4936243;29;20188;-85
2021/11/14 14:46:03;;;;;;;8.63;7.27;;;;;;;;;;4935814;29;20219;-85
2021/11/14 14:49:17;;;;;;;10.97;7.23;;;;;;;;;;4924693;29;20172;-85
2021/11/14 14:52:21;;;;;;;9.60;7.73;;;;;;;;;;4958130;29;20195;-84
2021/11/14 14:55:26;;;;;;;12.20;8.87;;;;;;;;;;4935262;29;20227;-85
2021/11/14 14:58:31;;;;;;;10.77;7.87;;;;;;;;;;4936402;29;20207;-85
2021/11/14 15:01:39;;;;;;;10.00;7.87;;;;;;;;;;4925209;29;20191;-84
2021/11/14 15:04:47;;;;;;;10.03;8.23;;;;;;;;;;4924778;29;20219;-84
2021/11/14 15:07:57;;;;;;;9.30;7.33;;;;;;;;;;4935623;29;20183;-85
2021/11/14 15:11:03;;;;;;;9.73;7.80;;;;;;;;;;4935695;29;20703;-85
2021/11/14 15:14:07;;;;;;;12.47;8.73;;;;;;;;;;4935232;29;20563;-85
2021/11/14 15:17:23;;;;;;;10.73;9.23;;;;;;;;;;4935409;29;20663;-86
2021/11/14 15:20:30;;;;;;;11.23;8.37;;;;;;;;;;4924255;29;20199;-85
2021/11/14 15:23:34;;;;;;;11.33;9.03;;;;;;;;;;4935061;29;20179;-85
2021/11/14 15:26:40;;;;;;;12.50;9.27;;;;;;;;;;4934752;29;20643;-85
2021/11/14 15:29:44;;;;;;;10.07;7.80;;;;;;;;;;4935420;29;20179;-85
2021/11/14 15:32:49;;;;;;;11.20;9.03;;;;;;;;;;4924363;29;20516;-84
2021/11/14 15:35:54;;;;;;;11.70;8.97;;;;;;;;;;4923935;29;20223;-85
2021/11/14 15:38:58;;;;;;;12.17;9.20;;;;;;;;;;4925208;29;20211;-85
2021/11/14 15:42:05;;;;;;;12.50;9.63;;;;;;;;;;4935150;29;20191;-85
2021/11/14 15:45:10;;;;;;;13.67;9.87;;;;;;;;;;4935648;29;20227;-85
2021/11/14 15:48:17;;;;;;;12.40;9.73;;;;;;;;;;4940486;29;20191;-85
2021/11/14 15:51:22;;;;;;;12.10;9.50;;;;;;;;;;4917752;29;20192;-85
2021/11/14 15:54:26;;;;;;;14.90;10.77;;;;;;;;;;4934460;29;20239;-85
2021/11/14 15:57:30;;;;;;;14.03;10.40;;;;;;;;;;4905732;29;20223;-85
2021/11/14 16:00:49;;;;;;;14.57;10.70;;;;;;;;;;4912136;29;20215;-85
2021/11/14 16:03:53;;;;;;;15.37;10.13;;;;;;;;;;4912109;29;20189;-85
2021/11/14 16:06:57;;;;;;;14.73;10.37;;;;;;;;;;4918776;29;20208;-85
2021/11/14 16:10:04;;;;;;;14.13;10.03;;;;;;;;;;4921298;28;20195;-85
2021/11/14 16:13:09;;;;;;;15.80;10.30;;;;;;;;;;4919591;29;20195;-85
2021/11/14 16:16:13;;;;;;;17.70;11.47;;;;;;;;;;4927262;29;20183;-85
2021/11/14 16:19:17;;;;;;;16.73;12.17;;;;;;;;;;4949397;29;20219;-85
2021/11/14 16:22:22;;;;;;;18.03;11.43;;;;;;;;;;4938078;29;20198;-85
2021/11/14 16:25:27;;;;;;;19.33;14.37;;;;;;;;;;4948726;29;20229;-85
2021/11/14 16:28:31;;;;;;;18.37;11.97;;;;;;;;;;4910268;29;20679;-85
2021/11/14 16:31:35;;;;;;;17.50;11.93;;;;;;;;;;4930002;29;20204;-85
2021/11/14 16:34:40;;;;;;;18.23;12.10;;;;;;;;;;4918844;29;20224;-85
2021/11/14 16:37:51;;;;;;;18.70;11.83;;;;;;;;;;4921108;29;20219;-85
2021/11/14 16:40:57;;;;;;;18.50;12.70;;;;;;;;;;4958357;29;20675;-85
2021/11/14 16:44:01;;;;;;;20.37;13.43;;;;;;;;;;4950255;28;20179;-86
2021/11/14 16:47:05;;;;;;;18.50;11.90;;;;;;;;;;4931465;29;20564;-85
2021/11/14 16:50:14;;;;;;;17.50;12.30;;;;;;;;;;4910027;29;20199;-86
2021/11/14 16:53:20;;;;;;;23.37;13.50;;;;;;;;;;4920421;29;20631;-85
2021/11/14 16:56:25;;;;;;;21.40;12.13;;;;;;;;;;4931222;29;20219;-86
2021/11/14 16:59:30;;;;;;;21.60;13.27;;;;;;;;;;4921271;29;20686;-84
2021/11/14 17:02:34;;;;;;;20.83;13.70;;;;;;;;;;4911429;29;20195;-85
2021/11/14 17:05:38;;;;;;;21.53;12.87;;;;;;;;;;4924276;29;20334;-85
2021/11/14 17:08:42;;;;;;;19.70;12.67;;;;;;;;;;4940797;29;20234;-85
2021/11/14 17:11:46;;;;;;;20.37;12.77;;;;;;;;;;4911133;29;20682;-84
2021/11/14 17:14:50;;;;;;;19.90;13.03;;;;;;;;;;4941722;29;20236;-85
2021/11/14 17:17:54;;;;;;;21.53;13.20;;;;;;;;;;4908425;29;20213;-86
2021/11/14 17:20:59;;;;;;;20.70;12.87;;;;;;;;;;4919990;29;20180;-85
2021/11/14 17:24:08;;;;;;;24.33;14.17;;;;;;;;;;4910128;29;20188;-85
2021/11/14 17:27:17;;;;;;;22.03;13.87;;;;;;;;;;4909588;29;20192;-85
2021/11/14 17:30:27;;;;;;;21.43;13.60;;;;;;;;;;4920346;29;20184;-85
2021/11/14 17:33:57;;;;;;;21.77;13.50;;;;;;;;;;4919821;29;20196;-85
2021/11/14 17:37:05;;;;;;;21.83;13.43;;;;;;;;;;4931256;29;20184;-86
2021/11/14 17:40:10;;;;;;;23.23;14.47;;;;;;;;;;4938016;29;20665;-85
2021/11/14 17:43:15;;;;;;;22.23;14.20;;;;;;;;;;4937803;29;20666;-86
2021/11/14 17:46:16;;;;;;;23.97;14.33;;;;;;;;;;4936699;23;20765;-75
2021/11/14 17:49:21;;;;;;;26.77;13.87;;;;;;;;;;4934529;29;20211;-75
2021/11/14 17:52:26;;;;;;;22.77;14.27;;;;;;;;;;4934048;29;20227;-75
2021/11/14 17:55:31;;;;;;;20.97;13.50;;;;;;;;;;4922299;29;20553;-76
2021/11/14 17:58:35;;;;;;;23.13;13.87;;;;;;;;;;4934271;29;20691;-75
2021/11/14 18:01:39;;;;;;;26.53;14.90;;;;;;;;;;4933854;29;20251;-75
2021/11/14 18:04:44;;;;;;;25.10;14.13;;;;;;;;;;4915153;29;20189;-76
2021/11/14 18:07:48;;;;;;;18.90;12.13;;;;;;;;;;4924712;29;20203;-75
2021/11/14 18:10:53;;;;;;;22.73;13.43;;;;;;;;;;4933700;29;20230;-76
2021/11/14 18:13:57;;;;;;;24.23;13.93;;;;;;;;;;4933594;29;20188;-75